Time;durP1;ratioP1;P1;durP2;ratioP2;P2;SDS_P1;SDS_P2;PMS_P1;PMS_P2;Temp;Humidity;BMP_temperature;BMP_pressure;BME280_temperature;BME280_humidity;BME280_pressure;Samples;Min_cycle;Max_cycle;Signal;HPM_P1;HPM_P2
2021/12/14 00:00:46;;;;;;;8.13;7.32;;;7.90;58.60;;;;;;20434;6862;339167;-86
2021/12/14 00:03:12;;;;;;;10.57;6.23;;;8.10;58.50;;;;;;20649;6863;68075;-88
2021/12/14 00:05:37;;;;;;;9.18;5.80;;;8.10;58.30;;;;;;20677;6863;67624;-87
2021/12/14 00:08:03;;;;;;;7.55;5.85;;;8.00;58.70;;;;;;20684;6863;68191;-87
2021/12/14 00:13:01;;;;;;;9.63;5.87;;;7.80;59.50;;;;;;20693;6863;68650;-87
2021/12/14 00:15:20;;;;;;;10.80;8.27;;;7.70;59.80;;;;;;20449;6863;311888;-86
2021/12/14 00:17:46;;;;;;;11.57;8.35;;;7.90;59.70;;;;;;20473;6863;308947;-87
2021/12/14 00:20:24;;;;;;;13.38;7.05;;;8.30;58.90;;;;;;20689;6863;67598;-86
2021/12/14 00:25:25;;;;;;;14.05;8.38;;;8.20;59.00;;;;;;20479;6864;314695;-87
2021/12/14 00:27:50;;;;;;;13.57;8.82;;;8.30;59.30;;;;;;20469;6864;309699;-86
2021/12/14 00:30:16;;;;;;;19.42;9.20;;;8.60;58.70;;;;;;20479;6864;305873;-86
2021/12/14 00:32:42;;;;;;;15.93;8.90;;;8.90;58.20;;;;;;20471;6864;309185;-86
2021/12/14 00:35:12;;;;;;;12.47;8.73;;;9.10;57.40;;;;;;20476;6864;308903;-87
2021/12/14 00:37:33;;;;;;;9.50;6.00;;;9.20;56.60;;;;;;20631;6864;68724;-86
2021/12/14 00:40:00;;;;;;;6.43;5.73;;;9.00;56.60;;;;;;20451;6864;303184;-86
2021/12/14 00:42:25;;;;;;;7.67;6.30;;;9.00;56.60;;;;;;20489;6864;314212;-86
2021/12/14 00:44:52;;;;;;;7.90;5.72;;;9.00;56.20;;;;;;20684;6864;68869;-89
2021/12/14 00:47:17;;;;;;;6.00;5.40;;;8.90;56.00;;;;;;20486;6864;278922;-87
2021/12/14 00:49:43;;;;;;;6.00;5.40;;;8.90;55.90;;;;;;20460;6864;279115;-87
2021/12/14 00:52:08;;;;;;;8.10;6.20;;;9.10;55.60;;;;;;20420;6864;313441;-87
2021/12/14 00:54:34;;;;;;;5.15;4.65;;;9.20;55.20;;;;;;20684;6864;68542;-87
2021/12/14 00:56:59;;;;;;;6.40;5.80;;;9.00;55.40;;;;;;20473;6864;327568;-87
2021/12/14 00:59:25;;;;;;;7.55;5.72;;;9.00;55.60;;;;;;20688;6864;68035;-87
2021/12/14 01:02:00;;;;;;;7.87;5.70;;;8.80;55.80;;;;;;20693;6864;71436;-86
2021/12/14 01:04:25;;;;;;;10.60;6.30;;;8.50;56.50;;;;;;20704;6864;68543;-86
2021/12/14 01:06:51;;;;;;;18.25;9.85;;;8.30;57.30;;;;;;20454;6864;300610;-87
2021/12/14 01:09:17;;;;;;;14.67;7.47;;;8.40;58.00;;;;;;20683;6864;70352;-87
2021/12/14 01:11:44;;;;;;;13.23;6.90;;;8.30;57.90;;;;;;20604;6864;67830;-87
2021/12/14 01:14:14;;;;;;;13.85;8.20;;;8.20;57.80;;;;;;20459;6862;339398;-87
2021/12/14 01:17:41;;;;;;;11.33;6.80;;;8.30;59.00;;;;;;20685;6863;67705;-87
2021/12/14 01:19:18;;;;;;;14.68;7.55;;;8.30;58.80;;;;;;20316;6863;67587;-87
2021/12/14 01:24:20;;;;;;;33.17;9.98;;;8.30;59.00;;;;;;20686;6863;67632;-87
2021/12/14 01:26:36;;;;;;;15.75;9.45;;;8.30;59.00;;;;;;20439;6863;339766;-87
2021/12/14 01:29:01;;;;;;;17.73;8.23;;;8.40;58.20;;;;;;20685;6863;72255;-87
2021/12/14 01:31:31;;;;;;;18.48;8.40;;;8.40;58.30;;;;;;20678;6863;68598;-87
2021/12/14 01:33:56;;;;;;;15.15;8.55;;;8.20;58.90;;;;;;20458;6864;339300;-87
2021/12/14 01:36:26;;;;;;;7.20;5.90;;;8.30;58.70;;;;;;20681;6864;68259;-87
2021/12/14 01:38:58;;;;;;;24.12;7.20;;;8.20;58.40;;;;;;20673;6864;68297;-87
2021/12/14 01:41:12;;;;;;;14.93;8.27;;;8.00;58.80;;;;;;20440;6864;338465;-87
2021/12/14 01:43:45;;;;;;;8.40;6.90;;;8.10;58.70;;;;;;20669;6864;68026;-87
2021/12/14 01:46:14;;;;;;;16.67;6.50;;;7.80;58.70;;;;;;20653;6864;67602;-87
2021/12/14 01:48:40;;;;;;;18.65;8.20;;;7.80;58.70;;;;;;20437;6864;343162;-87
2021/12/14 01:51:06;;;;;;;15.70;7.50;;;7.90;57.90;;;;;;20465;6864;332576;-87
2021/12/14 01:53:31;;;;;;;9.90;7.05;;;8.20;57.30;;;;;;20467;6864;309358;-87
2021/12/14 01:55:56;;;;;;;9.07;5.70;;;8.40;56.40;;;;;;20690;6864;68550;-87
2021/12/14 01:58:22;;;;;;;14.43;6.67;;;8.20;56.50;;;;;;20499;6864;337959;-87
2021/12/14 02:00:52;;;;;;;13.82;5.90;;;8.10;56.80;;;;;;20707;6864;72589;-88
2021/12/14 02:03:16;;;;;;;30.75;7.80;;;8.00;57.00;;;;;;20476;6864;299958;-86
2021/12/14 02:05:42;;;;;;;25.65;6.68;;;7.90;57.90;;;;;;20694;6864;71884;-88
2021/12/14 02:08:24;;;;;;;25.00;12.20;;;7.90;57.20;;;;;;20468;6864;309581;-87
2021/12/14 02:10:50;;;;;;;26.03;8.90;;;8.00;57.90;;;;;;20475;6864;283569;-87
2021/12/14 02:13:22;;;;;;;23.47;8.87;;;8.20;57.30;;;;;;20466;6864;309197;-88
2021/12/14 02:15:47;;;;;;;46.00;9.27;;;8.40;57.00;;;;;;20447;6864;283705;-87
2021/12/14 02:18:14;;;;;;;46.45;9.35;;;8.60;56.20;;;;;;20475;6864;283923;-87
2021/12/14 02:20:39;;;;;;;80.25;9.70;;;8.70;55.50;;;;;;20437;6864;308405;-87
2021/12/14 02:23:04;;;;;;;16.70;7.15;;;8.80;55.00;;;;;;20668;6864;67704;-87
2021/12/14 02:25:30;;;;;;;44.60;10.82;;;8.50;55.50;;;;;;20468;6862;339370;-87
2021/12/14 02:27:56;;;;;;;25.40;7.00;;;8.20;56.30;;;;;;20697;6863;68226;-86
2021/12/14 02:30:24;;;;;;;42.73;7.37;;;8.20;56.30;;;;;;20688;6863;68420;-86
2021/12/14 02:32:50;;;;;;;18.47;5.73;;;7.90;57.70;;;;;;20728;6863;67577;-87
2021/12/14 02:35:16;;;;;;;21.08;5.93;;;7.70;57.80;;;;;;20733;6863;71514;-88
2021/12/14 02:37:51;;;;;;;13.60;6.97;;;7.40;58.30;;;;;;20469;6863;313399;-87
2021/12/14 02:40:30;;;;;;;16.27;6.70;;;7.50;58.40;;;;;;20657;6863;68295;-87
2021/12/14 02:42:46;;;;;;;16.47;6.23;;;7.50;58.40;;;;;;20635;6863;68125;-87
2021/12/14 02:45:11;;;;;;;11.77;8.30;;;7.40;59.00;;;;;;20474;6864;309286;-87
2021/12/14 02:47:37;;;;;;;38.22;7.60;;;7.50;59.30;;;;;;20692;6864;68260;-87
2021/12/14 02:50:03;;;;;;;79.53;10.43;;;7.70;58.90;;;;;;20481;6864;342433;-87
2021/12/14 02:52:35;;;;;;;74.23;10.67;;;7.70;58.80;;;;;;20461;6864;286777;-87
2021/12/14 02:54:55;;;;;;;124.70;10.50;;;8.00;58.20;;;;;;20652;6864;68125;-87
2021/12/14 02:57:20;;;;;;;24.90;7.10;;;7.90;58.00;;;;;;20675;6864;68151;-86
2021/12/14 02:59:46;;;;;;;551.60;22.02;;;7.70;58.50;;;;;;20671;6864;68139;-87
2021/12/14 03:02:11;;;;;;;186.12;12.13;;;7.40;59.10;;;;;;20683;6864;68978;-86
2021/12/14 03:04:40;;;;;;;254.25;12.88;;;7.30;59.60;;;;;;20652;6864;68096;-86
2021/12/14 03:07:05;;;;;;;328.62;17.62;;;7.10;60.00;;;;;;20458;6864;310093;-86
2021/12/14 03:09:41;;;;;;;337.63;16.98;;;7.30;60.10;;;;;;20469;6864;309375;-87
2021/12/14 03:12:07;;;;;;;30.53;8.60;;;7.70;59.20;;;;;;20702;6864;68263;-88
2021/12/14 03:14:33;;;;;;;135.00;11.03;;;7.70;59.20;;;;;;20672;6864;67579;-87
2021/12/14 03:17:00;;;;;;;115.37;10.07;;;7.50;59.70;;;;;;20723;6864;68014;-87
2021/12/14 03:19:24;;;;;;;232.25;14.15;;;7.30;60.10;;;;;;20476;6864;335353;-86
2021/12/14 03:21:50;;;;;;;120.70;12.37;;;7.50;60.40;;;;;;20473;6864;342571;-86
2021/12/14 03:24:15;;;;;;;354.58;16.33;;;7.80;59.70;;;;;;20469;6864;285103;-87
2021/12/14 03:26:41;;;;;;;81.03;9.15;;;8.10;59.00;;;;;;20690;6864;68543;-87
2021/12/14 03:29:07;;;;;;;229.73;11.77;;;8.00;58.80;;;;;;20682;6864;68301;-86
2021/12/14 03:31:32;;;;;;;379.10;15.13;;;7.70;59.40;;;;;;20676;6864;69269;-87
2021/12/14 03:33:58;;;;;;;166.03;11.57;;;7.50;59.90;;;;;;20446;6864;333563;-86
2021/12/14 03:36:24;;;;;;;113.90;9.85;;;7.60;60.00;;;;;;20617;6862;71171;-87
2021/12/14 03:38:53;;;;;;;94.73;9.30;;;7.60;60.00;;;;;;20674;6863;67579;-87
2021/12/14 03:41:18;;;;;;;357.97;14.20;;;7.40;60.40;;;;;;20668;6863;68089;-87
2021/12/14 03:43:44;;;;;;;173.45;14.00;;;7.20;60.70;;;;;;20466;6863;297364;-87
2021/12/14 03:46:09;;;;;;;232.18;14.70;;;7.40;60.70;;;;;;20419;6863;313504;-87
2021/12/14 03:48:35;;;;;;;451.17;16.87;;;7.70;60.10;;;;;;20692;6863;68144;-87
2021/12/14 03:51:01;;;;;;;492.47;19.40;;;7.70;59.90;;;;;;20466;6863;338215;-87
2021/12/14 03:53:26;;;;;;;280.33;17.60;;;7.80;59.80;;;;;;20690;6863;68126;-87
2021/12/14 03:55:52;;;;;;;712.23;22.47;;;7.70;59.60;;;;;;20471;6864;337212;-87
2021/12/14 03:58:17;;;;;;;247.05;15.10;;;7.80;59.40;;;;;;20700;6864;67969;-88
2021/12/14 04:00:53;;;;;;;449.90;18.37;;;7.70;59.20;;;;;;20698;6864;67685;-88
2021/12/14 04:03:18;;;;;;;330.37;16.03;;;7.50;59.80;;;;;;20670;6864;68010;-87
2021/12/14 04:05:44;;;;;;;359.10;16.42;;;7.30;60.30;;;;;;20478;6864;308790;-87
2021/12/14 04:08:10;;;;;;;210.05;11.73;;;7.40;60.20;;;;;;20690;6864;68017;-88
2021/12/14 04:10:35;;;;;;;254.60;10.95;;;7.40;60.00;;;;;;20692;6864;68185;-87
2021/12/14 04:13:01;;;;;;;205.82;11.38;;;7.20;60.30;;;;;;20683;6864;68082;-87
2021/12/14 04:15:26;;;;;;;470.70;16.55;;;7.00;60.60;;;;;;20692;6864;68383;-89
2021/12/14 04:17:52;;;;;;;242.75;13.48;;;6.90;61.10;;;;;;20695;6864;74313;-87
2021/12/14 04:20:24;;;;;;;174.90;12.20;;;6.80;61.40;;;;;;20485;6864;339409;-88
2021/12/14 04:22:50;;;;;;;253.77;13.88;;;7.00;61.30;;;;;;20479;6864;313989;-89
2021/12/14 04:25:18;;;;;;;320.57;14.00;;;7.40;60.40;;;;;;20688;6864;67603;-87
2021/12/14 04:27:44;;;;;;;386.00;14.85;;;7.40;60.00;;;;;;20483;6864;282746;-89
2021/12/14 04:30:10;;;;;;;388.87;15.93;;;7.50;59.60;;;;;;20707;6864;70895;-88
2021/12/14 04:32:35;;;;;;;231.15;12.88;;;7.40;59.50;;;;;;20512;6864;339458;-91
2021/12/14 04:35:01;;;;;;;375.33;16.23;;;7.70;59.20;;;;;;20472;6864;339370;-91
2021/12/14 04:37:27;;;;;;;322.03;16.07;;;7.70;59.20;;;;;;20702;6864;67961;-89
2021/12/14 04:40:24;;;;;;;242.43;17.67;;;7.60;59.10;;;;;;20482;6864;279608;-91
2021/12/14 04:53:20;;;;;;;354.90;17.17;;;7.90;57.30;;;;;;19380;7239;318270;-90
2021/12/14 04:55:45;;;;;;;80.63;8.37;;;7.80;57.60;;;;;;20209;6847;67941;-92
2021/12/14 04:58:11;;;;;;;63.53;6.00;;;7.60;57.90;;;;;;20755;6847;68307;-89
2021/12/14 05:00:44;;;;;;;95.83;7.97;;;7.40;59.50;;;;;;20529;6847;308272;-87
2021/12/14 05:03:18;;;;;;;108.97;8.13;;;7.50;62.20;;;;;;20510;6847;279481;-92
2021/12/14 05:05:50;;;;;;;526.73;22.27;;;8.00;61.10;;;;;;20728;6847;69486;-91
2021/12/14 05:11:05;;;;;;;52.37;5.93;;;7.80;61.20;;;;;;20749;6847;67491;-91
2021/12/14 05:13:30;;;;;;;31.33;5.30;;;7.70;61.90;;;;;;20705;6847;68086;-91
2021/12/14 05:15:56;;;;;;;40.23;6.03;;;7.60;62.30;;;;;;20743;6847;67485;-90
2021/12/14 05:18:21;;;;;;;102.32;8.00;;;7.50;62.50;;;;;;20553;6847;314744;-89
2021/12/14 05:20:47;;;;;;;19.90;5.00;;;7.70;61.30;;;;;;20745;6847;70798;-89
2021/12/14 05:23:20;;;;;;;10.48;5.20;;;7.80;60.90;;;;;;20738;6847;67916;-90
2021/12/14 05:25:45;;;;;;;76.17;7.00;;;7.70;61.10;;;;;;20731;6847;68397;-91
2021/12/14 05:28:14;;;;;;;58.53;5.97;;;7.60;61.20;;;;;;20753;6847;68638;-92
2021/12/14 05:30:37;;;;;;;145.35;8.65;;;7.50;61.50;;;;;;20740;6847;68171;-90
2021/12/14 05:33:05;;;;;;;277.77;11.83;;;7.40;62.30;;;;;;20518;6847;338337;-90
2021/12/14 05:35:31;;;;;;;93.30;7.07;;;8.00;59.00;;;;;;20524;6847;308743;-89
2021/12/14 05:37:57;;;;;;;43.27;5.40;;;8.00;59.00;;;;;;20739;6847;67962;-88
2021/12/14 05:40:39;;;;;;;45.93;5.90;;;8.20;58.10;;;;;;20527;6847;307850;-87
2021/12/14 05:43:12;;;;;;;248.67;10.10;;;8.10;58.10;;;;;;20699;6847;67871;-86
2021/12/14 05:45:14;;;;;;;50.60;5.30;;;8.10;58.00;;;;;;20558;6847;70060;-89
2021/12/14 05:47:53;;;;;;;135.03;8.10;;;7.90;58.30;;;;;;20781;6847;74046;-88
2021/12/14 05:50:18;;;;;;;137.20;7.87;;;7.70;58.90;;;;;;20537;6847;282434;-91
2021/12/14 05:52:44;;;;;;;66.70;5.80;;;7.80;58.20;;;;;;20736;6847;67925;-92
2021/12/14 05:55:09;;;;;;;22.13;4.90;;;7.80;58.00;;;;;;20535;6847;342318;-89
2021/12/14 05:57:35;;;;;;;51.37;5.47;;;8.00;57.70;;;;;;20543;6847;308300;-90
2021/12/14 06:00:01;;;;;;;94.63;6.97;;;8.30;56.80;;;;;;20771;6845;71733;-91
2021/12/14 06:02:26;;;;;;;86.07;6.50;;;8.30;56.80;;;;;;20553;6846;308195;-89
2021/12/14 06:04:52;;;;;;;8.45;4.53;;;8.30;56.50;;;;;;20768;6847;67581;-89
2021/12/14 06:07:17;;;;;;;83.57;8.10;;;8.30;56.70;;;;;;20557;6847;312911;-88
2021/12/14 06:09:43;;;;;;;163.55;10.77;;;8.30;56.10;;;;;;20543;6847;279071;-89
2021/12/14 06:12:09;;;;;;;125.83;8.63;;;8.60;55.30;;;;;;20753;6847;72213;-88
2021/12/14 06:14:41;;;;;;;112.60;8.43;;;8.50;55.40;;;;;;20537;6847;307117;-86
2021/12/14 06:17:00;;;;;;;143.20;9.30;;;8.50;55.40;;;;;;20522;6847;282976;-89
2021/12/14 06:19:25;;;;;;;146.87;9.02;;;8.70;54.70;;;;;;20544;6847;307405;-87
2021/12/14 06:21:54;;;;;;;52.37;6.27;;;8.90;54.20;;;;;;20741;6847;91003;-88
2021/12/14 06:24:19;;;;;;;69.13;6.50;;;8.70;54.40;;;;;;20525;6847;313221;-88
2021/12/14 06:26:46;;;;;;;119.00;8.18;;;8.50;54.70;;;;;;20742;6847;67948;-89
2021/12/14 06:29:11;;;;;;;113.77;7.40;;;8.50;54.60;;;;;;20748;6847;69848;-88
2021/12/14 06:31:37;;;;;;;16.35;4.93;;;8.20;55.30;;;;;;20722;6847;68253;-88
2021/12/14 06:34:12;;;;;;;23.90;5.18;;;7.90;55.90;;;;;;20754;6847;67931;-91
2021/12/14 06:37:03;;;;;;;78.75;6.57;;;7.70;56.50;;;;;;20525;6847;308685;-89
2021/12/14 06:39:19;;;;;;;199.13;10.40;;;7.80;56.40;;;;;;20513;6847;279561;-90
2021/12/14 06:41:45;;;;;;;15.88;4.97;;;8.20;55.00;;;;;;20737;6847;68961;-91
2021/12/14 06:44:10;;;;;;;25.07;5.50;;;8.10;55.00;;;;;;20732;6847;68069;-88
2021/12/14 06:46:36;;;;;;;38.22;5.43;;;7.80;55.50;;;;;;20736;6847;67925;-88
2021/12/14 06:49:06;;;;;;;46.00;6.78;;;7.60;56.30;;;;;;20510;6847;312667;-89
2021/12/14 06:51:31;;;;;;;49.27;6.17;;;7.80;56.70;;;;;;20725;6847;68543;-90
2021/12/14 06:53:56;;;;;;;78.93;7.30;;;7.80;56.50;;;;;;20520;6847;313386;-91
2021/12/14 06:56:22;;;;;;;134.33;9.33;;;7.90;56.10;;;;;;20495;6847;280651;-88
2021/12/14 06:58:52;;;;;;;45.92;7.50;;;8.20;55.10;;;;;;20516;6847;313488;-91
2021/12/14 07:01:17;;;;;;;66.07;7.40;;;8.30;54.50;;;;;;20735;6847;67932;-88
2021/12/14 07:03:51;;;;;;;20.80;6.23;;;8.30;54.50;;;;;;20761;6847;67457;-90
2021/12/14 07:06:31;;;;;;;9.97;4.83;;;7.80;56.00;;;;;;20760;6847;68071;-91
2021/12/14 07:08:57;;;;;;;211.77;11.48;;;7.80;56.00;;;;;;19726;6847;338265;-88
2021/12/14 07:11:22;;;;;;;25.87;5.83;;;7.90;55.60;;;;;;20713;6845;68360;-89
2021/12/14 07:13:48;;;;;;;10.73;5.47;;;7.90;55.70;;;;;;20737;6846;67635;-89
2021/12/14 07:16:19;;;;;;;62.80;7.37;;;7.70;56.80;;;;;;20522;6847;317365;-87
2021/12/14 07:18:42;;;;;;;119.55;12.77;;;7.80;55.80;;;;;;20517;6847;339157;-88
2021/12/14 07:21:07;;;;;;;62.70;7.40;;;8.20;55.00;;;;;;20742;6847;67624;-89
2021/12/14 07:23:34;;;;;;;8.10;5.85;;;8.10;54.80;;;;;;20743;6847;74173;-91
2021/12/14 07:25:58;;;;;;;62.20;8.02;;;7.90;55.40;;;;;;20526;6847;309253;-88
2021/12/14 07:28:24;;;;;;;46.25;8.10;;;8.00;55.30;;;;;;20732;6847;68137;-88
2021/12/14 07:30:53;;;;;;;42.03;14.43;;;8.00;55.30;;;;;;20513;6847;343023;-91
2021/12/14 07:33:28;;;;;;;40.40;10.10;;;8.10;55.00;;;;;;20724;6847;67554;-88
2021/12/14 07:36:10;;;;;;;16.30;8.53;;;8.00;54.90;;;;;;20781;6847;72508;-86
2021/12/14 07:38:43;;;;;;;71.20;9.47;;;7.60;56.00;;;;;;20718;6847;67507;-90
2021/12/14 07:41:24;;;;;;;8.70;6.30;;;7.60;56.00;;;;;;20730;6847;68000;-88
2021/12/14 07:43:53;;;;;;;85.53;9.73;;;7.40;56.50;;;;;;20520;6847;295872;-88
2021/12/14 07:46:28;;;;;;;90.77;10.10;;;7.60;55.80;;;;;;20524;6847;294719;-88
2021/12/14 07:48:53;;;;;;;29.37;7.40;;;8.00;55.00;;;;;;20520;6847;316413;-87
2021/12/14 07:51:20;;;;;;;24.80;7.17;;;8.30;54.10;;;;;;20501;6847;313329;-87
2021/12/14 07:53:45;;;;;;;24.27;6.60;;;8.50;53.70;;;;;;20736;6847;71923;-88
2021/12/14 07:56:10;;;;;;;28.87;7.07;;;8.40;53.90;;;;;;20516;6847;309175;-91
2021/12/14 07:58:36;;;;;;;60.38;8.05;;;8.40;53.70;;;;;;20479;6847;312774;-86
2021/12/14 08:01:01;;;;;;;6.60;5.93;;;8.60;53.30;;;;;;20719;6847;74197;-90
2021/12/14 08:03:32;;;;;;;21.13;7.20;;;8.40;53.30;;;;;;20511;6847;292811;-87
2021/12/14 08:05:52;;;;;;;6.00;5.60;;;8.50;53.10;;;;;;20721;6847;68144;-86
2021/12/14 08:08:31;;;;;;;6.62;6.20;;;8.30;53.30;;;;;;20517;6847;340417;-87
2021/12/14 08:11:08;;;;;;;6.33;5.83;;;8.30;53.60;;;;;;20711;6847;67962;-90
2021/12/14 08:13:18;;;;;;;6.07;5.67;;;8.20;53.90;;;;;;20675;6847;68036;-88
2021/12/14 08:15:48;;;;;;;6.60;6.20;;;8.10;54.50;;;;;;20512;6847;311512;-89
2021/12/14 08:18:27;;;;;;;5.20;4.90;;;8.10;54.50;;;;;;20736;6847;70251;-90
2021/12/14 08:20:59;;;;;;;5.03;4.73;;;8.10;54.60;;;;;;20772;6847;67506;-87
2021/12/14 08:23:25;;;;;;;5.37;5.03;;;7.90;55.00;;;;;;20756;6845;68954;-87
2021/12/14 08:25:51;;;;;;;6.30;5.90;;;7.90;55.20;;;;;;20534;6846;311218;-87
2021/12/14 08:28:21;;;;;;;5.90;5.30;;;7.80;55.10;;;;;;20707;6847;72582;-87
2021/12/14 08:30:45;;;;;;;5.82;5.43;;;7.80;55.50;;;;;;20728;6847;68333;-86
2021/12/14 08:33:18;;;;;;;5.50;5.10;;;7.70;55.40;;;;;;20703;6847;69281;-86
2021/12/14 08:35:44;;;;;;;7.18;6.47;;;7.80;55.30;;;;;;20527;6847;278983;-87
2021/12/14 08:38:10;;;;;;;6.10;5.60;;;7.80;55.30;;;;;;20768;6847;67577;-87
2021/12/14 08:40:37;;;;;;;6.53;6.10;;;8.00;54.90;;;;;;20535;6847;280373;-84
2021/12/14 08:43:03;;;;;;;6.83;6.33;;;8.00;54.90;;;;;;20516;6847;281796;-85
2021/12/14 08:45:30;;;;;;;5.93;5.53;;;8.40;54.20;;;;;;20721;6847;68079;-87
2021/12/14 08:48:03;;;;;;;6.00;5.60;;;8.30;54.10;;;;;;20700;6847;90835;-86
2021/12/14 08:50:32;;;;;;;6.27;5.87;;;8.10;54.60;;;;;;20742;6847;77042;-84
2021/12/14 08:52:59;;;;;;;6.70;6.20;;;7.90;54.90;;;;;;20764;6847;72022;-86
2021/12/14 08:55:25;;;;;;;7.20;6.30;;;7.50;55.30;;;;;;20727;6847;68010;-83
2021/12/14 08:57:51;;;;;;;9.60;8.85;;;7.50;54.70;;;;;;20514;6847;309182;-84
2021/12/14 09:00:20;;;;;;;7.93;7.33;;;7.50;54.70;;;;;;20743;6847;67914;-85
2021/12/14 09:02:46;;;;;;;8.73;8.03;;;7.50;54.90;;;;;;20732;6847;72775;-85
2021/12/14 09:05:14;;;;;;;10.90;10.00;;;7.40;55.60;;;;;;20519;6847;313198;-84
2021/12/14 09:07:41;;;;;;;9.73;9.00;;;8.10;55.70;;;;;;20486;6847;307336;-85
2021/12/14 09:10:06;;;;;;;7.67;7.07;;;8.00;55.60;;;;;;20726;6847;67580;-84
2021/12/14 09:12:32;;;;;;;7.63;6.83;;;8.20;55.50;;;;;;20720;6847;67886;-84
2021/12/14 09:14:57;;;;;;;8.30;7.70;;;8.00;55.40;;;;;;20498;6847;308257;-84
2021/12/14 09:17:24;;;;;;;7.37;6.80;;;8.00;54.90;;;;;;20683;6847;68405;-85
2021/12/14 09:19:49;;;;;;;7.23;6.63;;;8.00;54.90;;;;;;20725;6847;68196;-84
2021/12/14 09:22:15;;;;;;;9.27;6.30;;;7.80;55.10;;;;;;20709;6847;67583;-85
2021/12/14 09:24:40;;;;;;;7.70;7.13;;;7.60;55.70;;;;;;20509;6847;279396;-84
2021/12/14 09:27:06;;;;;;;6.50;6.10;;;7.70;55.90;;;;;;20739;6847;67510;-84
2021/12/14 09:29:31;;;;;;;6.93;6.43;;;7.70;55.70;;;;;;20726;6847;68082;-84
2021/12/14 09:31:57;;;;;;;6.75;6.25;;;7.60;56.10;;;;;;20734;6847;68006;-85
2021/12/14 09:34:23;;;;;;;7.20;6.77;;;7.50;56.70;;;;;;20522;6845;279165;-84
2021/12/14 09:36:50;;;;;;;7.37;6.78;;;7.80;56.80;;;;;;20538;6846;307559;-84
2021/12/14 09:39:14;;;;;;;6.18;5.62;;;8.40;55.80;;;;;;20766;6847;67557;-90
2021/12/14 09:41:40;;;;;;;6.00;5.50;;;8.40;55.80;;;;;;20753;6847;67550;-85
2021/12/14 09:44:06;;;;;;;5.23;4.87;;;8.30;56.10;;;;;;20751;6847;69771;-88
2021/12/14 09:46:31;;;;;;;6.55;6.10;;;8.20;56.60;;;;;;20513;6847;292938;-85
2021/12/14 09:48:57;;;;;;;5.70;5.40;;;8.40;56.10;;;;;;20525;6847;281575;-84
2021/12/14 09:51:22;;;;;;;5.97;5.57;;;8.80;54.60;;;;;;20515;6847;282305;-84
2021/12/14 09:53:48;;;;;;;5.10;4.80;;;9.10;53.90;;;;;;20688;6847;67517;-85
2021/12/14 09:56:13;;;;;;;5.17;4.77;;;9.00;53.90;;;;;;20715;6847;67493;-84
2021/12/14 09:58:39;;;;;;;5.57;4.57;;;8.80;54.60;;;;;;20728;6847;71863;-85
2021/12/14 10:01:08;;;;;;;5.60;5.10;;;8.40;55.70;;;;;;20709;6847;67587;-85
2021/12/14 10:03:34;;;;;;;5.40;5.10;;;8.40;55.70;;;;;;20725;6847;68625;-84
2021/12/14 10:06:03;;;;;;;4.83;4.53;;;8.30;56.10;;;;;;20732;6847;69014;-84
2021/12/14 10:08:30;;;;;;;5.82;5.43;;;8.30;56.60;;;;;;20520;6847;309132;-85
2021/12/14 10:10:59;;;;;;;5.82;5.40;;;8.50;55.80;;;;;;20495;6847;308238;-86
2021/12/14 10:13:20;;;;;;;5.53;5.23;;;8.90;54.80;;;;;;20505;6847;316809;-86
2021/12/14 10:15:47;;;;;;;4.80;4.50;;;9.30;54.00;;;;;;20739;6847;67511;-85
2021/12/14 10:18:11;;;;;;;4.90;4.60;;;9.20;53.90;;;;;;20721;6847;76454;-85
2021/12/14 10:20:39;;;;;;;5.80;5.50;;;9.10;54.50;;;;;;20512;6847;279448;-85
2021/12/14 10:23:06;;;;;;;6.10;5.70;;;9.20;54.60;;;;;;20240;6847;309118;-85
2021/12/14 10:25:32;;;;;;;5.50;5.10;;;9.50;53.80;;;;;;20725;6847;68040;-85
2021/12/14 10:27:56;;;;;;;5.83;5.43;;;9.50;53.80;;;;;;20734;6847;67838;-85
2021/12/14 10:30:30;;;;;;;5.72;5.32;;;9.40;54.50;;;;;;20517;6847;294646;-85
2021/12/14 10:32:55;;;;;;;5.30;5.00;;;9.40;53.80;;;;;;20701;6847;68072;-85
2021/12/14 10:35:22;;;;;;;5.70;5.23;;;9.40;54.10;;;;;;20725;6847;68053;-85
2021/12/14 10:37:59;;;;;;;5.23;4.83;;;9.20;54.30;;;;;;20731;6847;67486;-86
2021/12/14 10:43:16;;;;;;;5.90;5.53;;;9.20;54.10;;;;;;20509;6847;279413;-84
2021/12/14 10:45:51;;;;;;;6.03;5.72;;;9.20;54.10;;;;;;20531;6845;307614;-84
2021/12/14 10:48:17;;;;;;;6.47;5.97;;;9.60;53.30;;;;;;20457;6846;303241;-88
2021/12/14 10:50:43;;;;;;;5.57;5.17;;;9.80;52.40;;;;;;20735;6847;67929;-86
2021/12/14 10:53:09;;;;;;;5.03;4.73;;;9.80;52.40;;;;;;20758;6847;68421;-89
2021/12/14 10:55:35;;;;;;;5.37;5.07;;;9.70;53.00;;;;;;20780;6847;68743;-89
2021/12/14 10:58:00;;;;;;;4.90;4.53;;;9.50;53.50;;;;;;20729;6847;68022;-88
2021/12/14 11:00:30;;;;;;;8.20;4.60;;;9.40;54.00;;;;;;20741;6847;71592;-86
2021/12/14 11:02:54;;;;;;;5.47;5.00;;;9.30;54.40;;;;;;20732;6847;90538;-86
2021/12/14 11:05:19;;;;;;;6.03;5.53;;;9.20;54.70;;;;;;20526;6847;309517;-88
2021/12/14 11:07:46;;;;;;;5.60;5.30;;;9.50;54.40;;;;;;20524;6847;339159;-86
2021/12/14 11:10:17;;;;;;;5.10;4.70;;;9.90;53.00;;;;;;20729;6847;68455;-87
2021/12/14 11:12:43;;;;;;;4.97;4.57;;;9.90;53.00;;;;;;20689;6847;68493;-86
2021/12/14 11:15:16;;;;;;;6.30;5.80;;;9.70;53.80;;;;;;20725;6847;67976;-89
2021/12/14 11:20:37;;;;;;;6.00;5.60;;;9.80;52.60;;;;;;20743;6847;68444;-88
2021/12/14 11:23:22;;;;;;;5.60;5.20;;;9.80;52.80;;;;;;20518;6847;307186;-88
2021/12/14 11:25:51;;;;;;;7.43;6.72;;;10.00;51.60;;;;;;20528;6847;278964;-89
2021/12/14 11:28:16;;;;;;;6.00;5.40;;;10.40;50.70;;;;;;20736;6847;68289;-92
2021/12/14 11:30:41;;;;;;;6.10;5.70;;;10.40;50.80;;;;;;20122;6847;279865;-91
2021/12/14 11:33:18;;;;;;;6.40;6.00;;;10.50;50.40;;;;;;20496;6847;308063;-87
2021/12/14 11:35:59;;;;;;;6.03;5.33;;;10.80;50.50;;;;;;20560;6847;68015;-90
2021/12/14 11:38:38;;;;;;;4.93;4.50;;;10.80;50.20;;;;;;20730;6847;68381;-92
2021/12/14 11:41:23;;;;;;;5.20;4.85;;;10.60;50.80;;;;;;20487;6847;311339;-89
2021/12/14 11:43:48;;;;;;;5.03;4.73;;;10.70;51.10;;;;;;20706;6847;68530;-88
2021/12/14 11:46:14;;;;;;;5.17;4.87;;;10.70;51.40;;;;;;20514;6847;309553;-87
2021/12/14 11:48:40;;;;;;;5.40;5.00;;;10.80;51.00;;;;;;20560;6847;336673;-86
2021/12/14 11:51:06;;;;;;;4.63;4.33;;;11.00;49.70;;;;;;20776;6847;72269;-86
2021/12/14 11:53:32;;;;;;;4.60;4.30;;;10.90;49.60;;;;;;20498;6847;331471;-87
2021/12/14 11:56:09;;;;;;;4.50;4.10;;;11.00;49.70;;;;;;20733;6847;72216;-91
2021/12/14 11:58:43;;;;;;;4.63;4.33;;;10.70;50.90;;;;;;20730;6845;67963;-90
2021/12/14 12:01:23;;;;;;;5.00;4.60;;;10.60;50.60;;;;;;20508;6846;335811;-90
2021/12/14 12:03:58;;;;;;;4.80;4.50;;;10.70;50.20;;;;;;20737;6847;68846;-88
2021/12/14 12:11:42;;;;;;;5.27;4.97;;;11.00;49.90;;;;;;20570;6847;283648;-88
2021/12/14 12:14:17;;;;;;;5.62;5.18;;;11.30;48.90;;;;;;20490;6847;342397;-87
2021/12/14 12:16:43;;;;;;;4.40;4.10;;;11.50;49.20;;;;;;20731;6847;67590;-87
2021/12/14 12:19:08;;;;;;;6.12;4.60;;;11.30;49.70;;;;;;20730;6847;68139;-90
2021/12/14 12:21:34;;;;;;;4.53;4.33;;;11.00;50.30;;;;;;20723;6847;71812;-87
2021/12/14 12:23:59;;;;;;;5.10;4.70;;;10.90;51.10;;;;;;20525;6847;338274;-88
2021/12/14 12:26:29;;;;;;;4.90;4.60;;;10.90;50.70;;;;;;20529;6847;309666;-88
2021/12/14 12:28:51;;;;;;;4.57;4.27;;;11.20;50.30;;;;;;20734;6847;67791;-88
2021/12/14 12:31:19;;;;;;;5.23;4.83;;;11.20;49.90;;;;;;20528;6847;282709;-87
2021/12/14 12:33:46;;;;;;;4.80;4.50;;;11.20;49.80;;;;;;20732;6847;68498;-87
2021/12/14 12:36:17;;;;;;;4.70;4.40;;;11.20;50.20;;;;;;20707;6847;68195;-87
2021/12/14 12:38:43;;;;;;;5.03;4.62;;;10.90;50.70;;;;;;20514;6847;338611;-86
2021/12/14 12:41:16;;;;;;;4.87;4.47;;;11.00;50.90;;;;;;20734;6847;68101;-89
2021/12/14 12:43:44;;;;;;;4.93;4.62;;;11.10;50.30;;;;;;20506;6847;309600;-87
2021/12/14 12:46:09;;;;;;;4.70;4.30;;;11.10;50.30;;;;;;20723;6847;68076;-86
2021/12/14 12:48:41;;;;;;;5.00;4.70;;;11.10;50.60;;;;;;20499;6847;279038;-88
2021/12/14 12:51:07;;;;;;;4.90;4.60;;;11.20;50.50;;;;;;20520;6847;309163;-87
2021/12/14 12:53:32;;;;;;;4.63;4.23;;;11.50;49.80;;;;;;20781;6847;70446;-92
2021/12/14 12:56:08;;;;;;;4.80;4.50;;;11.40;50.00;;;;;;20756;6847;67945;-86
2021/12/14 12:58:33;;;;;;;5.07;4.00;;;11.20;50.60;;;;;;20738;6847;68595;-87
2021/12/14 13:01:00;;;;;;;4.90;4.60;;;11.00;51.80;;;;;;20523;6847;313054;-88
2021/12/14 13:03:26;;;;;;;4.70;4.40;;;11.10;50.70;;;;;;20521;6847;278530;-87
2021/12/14 13:05:54;;;;;;;4.60;4.30;;;11.60;50.00;;;;;;20509;6847;309155;-88
2021/12/14 13:08:33;;;;;;;4.77;4.37;;;11.60;50.00;;;;;;20727;6845;68341;-87
2021/12/14 13:11:17;;;;;;;4.83;4.43;;;11.50;50.30;;;;;;20742;6846;67920;-85
2021/12/14 13:13:53;;;;;;;4.87;4.57;;;11.30;50.80;;;;;;20521;6847;312052;-86
2021/12/14 13:16:22;;;;;;;4.20;3.90;;;11.30;50.00;;;;;;20689;6847;67952;-87